createdAt,value
2022-11-02T00:02:07.487Z,10.30
2022-11-02T00:05:14.592Z,10.18
2022-11-02T00:08:16.964Z,10.23
2022-11-02T00:11:19.330Z,10.15
2022-11-02T00:14:21.736Z,10.09
2022-11-02T00:17:24.299Z,10.09
2022-11-02T00:20:26.777Z,10.11
2022-11-02T00:23:29.935Z,10.04
2022-11-02T00:26:33.983Z,10.16
2022-11-02T00:29:37.188Z,10.17
2022-11-02T00:32:41.674Z,10.28
2022-11-02T00:35:45.733Z,10.32
2022-11-02T00:38:48.278Z,10.28
2022-11-02T00:41:50.601Z,10.32
2022-11-02T00:44:53.140Z,10.20
2022-11-02T00:47:55.533Z,10.30
2022-11-02T00:50:57.988Z,10.29
2022-11-02T00:54:03.806Z,10.28
2022-11-02T00:57:06.243Z,10.29
2022-11-02T01:00:10.153Z,10.15
2022-11-02T01:03:12.647Z,10.22
2022-11-02T01:06:16.677Z,10.18
2022-11-02T01:09:20.385Z,10.21
2022-11-02T01:12:26.587Z,10.14
2022-11-02T01:15:29.080Z,10.09
2022-11-02T01:18:31.626Z,10.19
2022-11-02T01:21:34.030Z,10.18
2022-11-02T01:24:37.920Z,10.22
2022-11-02T01:27:40.359Z,10.27
2022-11-02T01:30:43.750Z,10.15
2022-11-02T01:33:47.753Z,10.26
2022-11-02T01:36:50.325Z,10.22
2022-11-02T01:39:52.700Z,10.18
2022-11-02T01:42:55.189Z,10.07
2022-11-02T01:46:15.465Z,10.19
2022-11-02T01:49:19.826Z,10.11
2022-11-02T01:52:32.697Z,9.95
2022-11-02T01:55:35.178Z,10.16
2022-11-02T01:58:37.655Z,10.09
2022-11-02T02:01:40.239Z,10.04
2022-11-02T02:04:43.593Z,10.07
2022-11-02T02:07:46.697Z,10.11
2022-11-02T02:10:49.104Z,9.99
2022-11-02T02:13:51.759Z,10.19
2022-11-02T02:17:26.627Z,10.34
2022-11-02T02:21:10.761Z,10.30
2022-11-02T02:24:31.203Z,10.29
2022-11-02T02:28:37.858Z,10.32
2022-11-02T02:31:49.208Z,10.35
2022-11-02T02:34:54.404Z,10.25
2022-11-02T02:38:32.222Z,10.28
2022-11-02T02:42:24.979Z,10.33
2022-11-02T02:45:35.511Z,10.36
2022-11-02T02:48:40.536Z,10.30
2022-11-02T02:51:44.027Z,10.23
2022-11-02T02:54:47.623Z,10.11
2022-11-02T02:57:51.930Z,10.21
2022-11-02T03:00:55.176Z,10.21
2022-11-02T03:03:59.087Z,10.12
2022-11-02T03:07:02.908Z,10.09
2022-11-02T03:10:45.388Z,10.20
2022-11-02T03:13:58.301Z,10.16
2022-11-02T03:17:24.867Z,10.16
2022-11-02T03:20:55.223Z,10.15
2022-11-02T03:24:08.154Z,10.13
2022-11-02T03:27:30.552Z,10.15
2022-11-02T03:30:39.616Z,10.15
2022-11-02T03:33:58.469Z,10.15
2022-11-02T03:37:10.890Z,10.20
2022-11-02T03:40:35.834Z,10.14
2022-11-02T03:43:39.060Z,10.14
2022-11-02T03:46:43.801Z,10.04
2022-11-02T03:49:50.203Z,10.02
2022-11-02T03:52:57.686Z,10.08
2022-11-02T03:56:05.834Z,10.12
2022-11-02T03:59:08.836Z,10.03
2022-11-02T04:02:12.760Z,10.07
2022-11-02T04:05:16.369Z,10.14
2022-11-02T04:08:33.788Z,10.18
2022-11-02T04:11:58.027Z,10.13
2022-11-02T04:15:02.843Z,10.04
2022-11-02T04:18:24.169Z,10.23
2022-11-02T04:21:26.891Z,10.21
2022-11-02T04:24:48.152Z,10.27
2022-11-02T04:27:52.061Z,10.29
2022-11-02T04:31:00.464Z,10.17
2022-11-02T04:34:06.863Z,10.23
2022-11-02T04:37:28.481Z,10.26
2022-11-02T04:40:36.143Z,10.35
2022-11-02T04:43:40.406Z,10.33
2022-11-02T04:46:44.224Z,10.34
2022-11-02T04:49:48.093Z,10.19
2022-11-02T04:53:03.364Z,10.47
2022-11-02T04:56:08.537Z,10.32
2022-11-02T04:59:11.129Z,10.52
2022-11-02T05:02:14.077Z,10.47
2022-11-02T05:05:19.220Z,10.41
2022-11-02T05:08:24.399Z,10.26
2022-11-02T05:11:28.255Z,10.38
2022-11-02T05:14:32.069Z,10.32
2022-11-02T05:17:36.122Z,10.27
2022-11-02T05:20:38.698Z,10.20
2022-11-02T05:23:41.054Z,10.54
2022-11-02T05:26:44.363Z,10.52
2022-11-02T05:29:46.772Z,10.69
2022-11-02T05:32:49.245Z,10.50
2022-11-02T05:35:51.782Z,10.53
2022-11-02T05:38:55.421Z,10.42
2022-11-02T05:41:58.309Z,10.06
2022-11-02T05:45:02.145Z,10.02
2022-11-02T05:48:06.750Z,9.87
2022-11-02T05:51:09.888Z,9.93
2022-11-02T05:54:13.371Z,9.94
2022-11-02T05:57:17.179Z,9.90
2022-11-02T06:00:21.374Z,9.87
2022-11-02T06:03:23.921Z,9.92
2022-11-02T06:06:27.038Z,9.92
2022-11-02T06:09:29.632Z,9.91
2022-11-02T06:12:32.153Z,9.89
2022-11-02T06:15:35.181Z,9.97
2022-11-02T06:18:38.854Z,10.00
2022-11-02T06:21:44.418Z,10.03
2022-11-02T06:24:49.996Z,9.95
2022-11-02T06:27:56.659Z,10.12
2022-11-02T06:31:02.556Z,10.06
2022-11-02T06:34:05.301Z,10.22
2022-11-02T06:37:07.988Z,10.27
2022-11-02T06:40:11.706Z,10.25
2022-11-02T06:43:16.921Z,10.40
2022-11-02T06:46:20.997Z,10.47
2022-11-02T06:49:23.944Z,10.81
2022-11-02T06:52:27.558Z,10.94
2022-11-02T06:55:30.124Z,11.04
2022-11-02T06:58:36.205Z,10.84
2022-11-02T07:01:39.012Z,10.93
2022-11-02T07:04:42.102Z,10.89
2022-11-02T07:07:44.527Z,10.89
2022-11-02T07:10:47.266Z,10.92
2022-11-02T07:13:49.751Z,11.02
2022-11-02T07:16:52.531Z,10.85
2022-11-02T07:19:54.893Z,10.66
2022-11-02T07:22:59.030Z,10.65
2022-11-02T07:26:01.962Z,10.80
2022-11-02T07:29:04.381Z,10.78
2022-11-02T07:32:07.701Z,10.74
2022-11-02T07:35:11.582Z,10.71
2022-11-02T07:38:14.095Z,10.80
2022-11-02T07:41:16.593Z,10.73
2022-11-02T07:44:18.991Z,10.76
2022-11-02T07:47:30.895Z,10.81
2022-11-02T07:50:33.310Z,10.89
2022-11-02T07:53:35.830Z,11.12
2022-11-02T07:56:38.326Z,11.38
2022-11-02T07:59:40.885Z,11.55
2022-11-02T08:02:43.390Z,11.76
2022-11-02T08:05:46.291Z,11.66
2022-11-02T08:08:48.781Z,11.57
2022-11-02T08:11:51.273Z,11.65
2022-11-02T08:14:53.705Z,11.75
2022-11-02T08:18:06.398Z,11.93
2022-11-02T08:21:09.046Z,11.77
2022-11-02T08:24:11.489Z,11.96
2022-11-02T08:27:13.868Z,12.30
2022-11-02T08:30:16.464Z,12.18
2022-11-02T08:33:20.387Z,12.41
2022-11-02T08:36:22.744Z,12.48
2022-11-02T08:39:25.151Z,12.46
2022-11-02T08:42:27.546Z,13.18
2022-11-02T08:45:53.813Z,13.05
2022-11-02T08:48:53.597Z,12.94
2022-11-02T08:51:56.212Z,13.22
2022-11-02T08:54:58.679Z,13.21
2022-11-02T08:58:01.617Z,12.98
2022-11-02T09:01:04.204Z,13.28
2022-11-02T09:04:09.415Z,13.01
2022-11-02T09:07:11.806Z,13.50
2022-11-02T09:10:14.406Z,14.14
2022-11-02T09:13:20.828Z,14.45
2022-11-02T09:16:23.188Z,14.63
2022-11-02T09:19:25.590Z,14.82
2022-11-02T09:22:46.595Z,14.89
2022-11-02T09:25:49.651Z,14.70
2022-11-02T09:28:52.220Z,14.79
2022-11-02T09:31:54.733Z,14.45
2022-11-02T09:34:57.238Z,14.60
2022-11-02T09:37:59.752Z,14.89
2022-11-02T09:41:14.751Z,14.22
2022-11-02T09:44:30.439Z,14.67
2022-11-02T09:48:24.948Z,14.80
2022-11-02T09:51:14.461Z,14.87
2022-11-02T09:54:29.900Z,15.08
2022-11-02T09:57:33.652Z,15.01
2022-11-02T10:00:38.700Z,14.88
2022-11-02T10:03:55.065Z,14.83
2022-11-02T10:07:35.156Z,14.91
2022-11-02T10:10:52.781Z,15.04
2022-11-02T10:13:59.024Z,15.00
2022-11-02T10:17:24.930Z,15.03
2022-11-02T10:20:32.617Z,14.91
2022-11-02T10:23:39.110Z,15.00
2022-11-02T10:26:43.525Z,15.05
2022-11-02T10:29:49.115Z,15.09
2022-11-02T10:32:53.071Z,15.20
2022-11-02T10:36:52.689Z,15.39
2022-11-02T10:40:19.878Z,15.35
2022-11-02T10:44:04.423Z,15.39
2022-11-02T10:47:16.703Z,15.39
2022-11-02T10:50:52.926Z,15.51
2022-11-02T10:53:55.659Z,15.57
2022-11-02T10:56:58.833Z,15.56
2022-11-02T11:00:28.168Z,15.69
2022-11-02T11:03:30.674Z,15.65
2022-11-02T11:06:51.144Z,15.70
2022-11-02T11:09:57.859Z,15.83
2022-11-02T11:13:04.037Z,15.81
2022-11-02T11:16:09.559Z,16.08
2022-11-02T11:19:48.273Z,16.22
2022-11-02T11:23:17.308Z,16.14
2022-11-02T11:26:28.335Z,16.06
2022-11-02T11:29:32.849Z,16.31
2022-11-02T11:32:35.698Z,16.37
2022-11-02T11:35:39.251Z,16.18
2022-11-02T11:38:46.844Z,16.41
2022-11-02T11:41:49.336Z,16.44
2022-11-02T11:44:57.704Z,16.43
2022-11-02T11:48:25.527Z,16.62
2022-11-02T11:51:32.046Z,16.67
2022-11-02T11:54:34.644Z,16.38
2022-11-02T12:00:40.867Z,16.55
2022-11-02T12:04:01.431Z,16.64
2022-11-02T12:07:15.713Z,16.69
2022-11-02T12:10:36.368Z,16.72
2022-11-02T12:14:03.218Z,16.82
2022-11-02T12:17:06.610Z,16.84
2022-11-02T12:20:27.707Z,16.96
2022-11-02T12:23:52.348Z,17.27
2022-11-02T12:27:16.364Z,17.76
2022-11-02T12:30:21.875Z,17.28
2022-11-02T12:33:33.573Z,18.01
2022-11-02T12:37:11.195Z,18.36
2022-11-02T12:40:08.329Z,18.61
2022-11-02T12:43:28.775Z,18.73
2022-11-02T12:46:51.247Z,18.95
2022-11-02T12:50:08.659Z,19.05
2022-11-02T12:53:47.793Z,19.35
2022-11-02T12:56:52.113Z,19.27
2022-11-02T13:00:02.279Z,19.75
2022-11-02T13:03:25.132Z,19.03
2022-11-02T13:06:35.115Z,19.25
2022-11-02T13:09:51.695Z,19.33
2022-11-02T13:13:00.078Z,19.09
2022-11-02T13:16:03.498Z,19.25
2022-11-02T13:19:12.278Z,19.16
2022-11-02T13:22:16.128Z,19.14
2022-11-02T13:25:22.445Z,19.23
2022-11-02T13:28:36.123Z,19.26
2022-11-02T13:31:52.335Z,19.43
2022-11-02T13:34:55.027Z,19.59
2022-11-02T13:38:34.420Z,19.55
2022-11-02T13:41:39.715Z,19.58
2022-11-02T13:44:48.204Z,19.30
2022-11-02T13:48:10.859Z,19.31
2022-11-02T13:51:21.062Z,19.10
2022-11-02T13:54:29.215Z,18.93
2022-11-02T13:57:35.201Z,18.92
2022-11-02T14:00:44.563Z,19.20
2022-11-02T14:04:01.654Z,19.57
2022-11-02T14:07:07.300Z,19.12
2022-11-02T14:10:16.545Z,19.26
2022-11-02T14:13:53.674Z,19.10
2022-11-02T14:17:00.408Z,18.73
2022-11-02T14:20:04.961Z,18.46
2022-11-02T14:23:14.198Z,18.38
2022-11-02T14:26:31.521Z,18.18
2022-11-02T14:29:46.435Z,17.56
2022-11-02T14:33:00.328Z,17.12
2022-11-02T14:36:10.350Z,16.92
2022-11-02T14:39:19.675Z,16.33
2022-11-02T14:42:35.203Z,16.12
2022-11-02T14:45:51.430Z,15.96
2022-11-02T14:48:57.295Z,16.02
2022-11-02T14:52:22.948Z,16.11
2022-11-02T14:55:29.216Z,15.77
2022-11-02T14:58:40.827Z,15.65
2022-11-02T15:01:54.130Z,15.20
2022-11-02T15:04:59.040Z,15.06
2022-11-02T15:08:16.015Z,14.85
2022-11-02T15:11:50.059Z,14.75
2022-11-02T15:14:56.370Z,14.47
2022-11-02T15:18:00.129Z,14.45
2022-11-02T15:21:22.320Z,14.23
2022-11-02T15:24:27.103Z,14.20
2022-11-02T15:27:30.125Z,14.11
2022-11-02T15:30:32.735Z,14.03
2022-11-02T15:33:38.099Z,14.05
2022-11-02T15:36:42.696Z,13.97
2022-11-02T15:39:50.045Z,13.90
2022-11-02T15:43:01.677Z,13.84
2022-11-02T15:46:22.806Z,13.79
2022-11-02T15:49:41.323Z,13.64
2022-11-02T15:53:21.210Z,13.48
2022-11-02T15:56:26.593Z,13.28
2022-11-02T16:00:19.912Z,13.29
2022-11-02T16:03:22.384Z,13.03
2022-11-02T16:06:26.716Z,12.97
2022-11-02T16:09:32.271Z,12.92
2022-11-02T16:12:34.701Z,12.66
2022-11-02T16:15:37.605Z,12.71
2022-11-02T16:18:41.672Z,12.55
2022-11-02T16:21:44.069Z,12.58
2022-11-02T16:24:46.629Z,12.41
2022-11-02T16:27:49.228Z,12.39
2022-11-02T16:31:17.281Z,12.42
2022-11-02T16:34:22.799Z,12.23
2022-11-02T16:37:25.339Z,12.22
2022-11-02T16:40:28.120Z,12.14
2022-11-02T16:43:31.051Z,12.11
2022-11-02T16:47:00.605Z,12.11
2022-11-02T16:50:04.790Z,11.91
2022-11-02T16:53:30.125Z,11.98
2022-11-02T16:56:32.973Z,11.91
2022-11-02T16:59:35.449Z,11.77
2022-11-02T17:02:40.329Z,11.67
2022-11-02T17:05:43.133Z,11.71
2022-11-02T17:08:54.396Z,11.63
2022-11-02T17:11:59.635Z,11.53
2022-11-02T17:15:09.059Z,11.39
2022-11-02T17:18:11.467Z,11.53
2022-11-02T17:21:13.816Z,11.50
2022-11-02T17:24:31.446Z,11.18
2022-11-02T17:27:39.096Z,11.30
2022-11-02T17:30:45.212Z,11.31
2022-11-02T17:33:48.430Z,11.26
2022-11-02T17:36:52.007Z,11.13
2022-11-02T17:39:55.329Z,11.09
2022-11-02T17:43:00.921Z,11.21
2022-11-02T17:46:03.552Z,11.08
2022-11-02T17:49:05.903Z,11.07
2022-11-02T17:52:13.883Z,10.96
2022-11-02T17:55:19.115Z,10.91
2022-11-02T17:58:21.738Z,10.89
2022-11-02T18:01:24.638Z,10.67
2022-11-02T18:04:27.416Z,10.70
2022-11-02T18:07:29.949Z,10.61
2022-11-02T18:10:43.517Z,10.66
2022-11-02T18:13:45.931Z,10.49
2022-11-02T18:16:48.593Z,10.51
2022-11-02T18:19:51.312Z,10.55
2022-11-02T18:22:55.289Z,10.44
2022-11-02T18:25:59.326Z,10.41
2022-11-02T18:29:04.270Z,10.41
2022-11-02T18:32:06.686Z,10.43
2022-11-02T18:35:15.043Z,10.30
2022-11-02T18:38:17.723Z,10.35
2022-11-02T18:41:32.137Z,10.57
2022-11-02T18:44:34.870Z,10.38
2022-11-02T18:47:38.104Z,10.31
2022-11-02T18:50:40.809Z,10.23
2022-11-02T18:53:43.306Z,10.04
2022-11-02T18:56:45.854Z,9.77
2022-11-02T18:59:48.382Z,9.39
2022-11-02T19:02:51.042Z,9.30
2022-11-02T19:06:15.299Z,9.45
2022-11-02T19:09:19.920Z,9.32
2022-11-02T19:12:24.644Z,9.21
2022-11-02T19:15:29.560Z,9.23
2022-11-02T19:18:32.126Z,9.29
2022-11-02T19:21:34.755Z,9.31
2022-11-02T19:24:37.966Z,9.20
2022-11-02T19:27:40.547Z,9.27
2022-11-02T19:30:43.964Z,9.32
2022-11-02T19:33:46.387Z,9.29
2022-11-02T19:36:48.760Z,9.35
2022-11-02T19:39:51.337Z,9.23
2022-11-02T19:42:54.316Z,9.17
2022-11-02T19:46:03.791Z,9.30
2022-11-02T19:49:06.358Z,9.12
2022-11-02T19:52:08.896Z,9.28
2022-11-02T19:55:11.260Z,9.12
2022-11-02T19:58:14.056Z,9.09
2022-11-02T20:01:21.748Z,9.08
2022-11-02T20:04:24.516Z,8.97
2022-11-02T20:07:27.272Z,8.92
2022-11-02T20:10:30.385Z,8.86
2022-11-02T20:13:34.157Z,8.93
2022-11-02T20:16:36.772Z,8.84
2022-11-02T20:19:39.384Z,8.83
2022-11-02T20:22:43.185Z,8.87
2022-11-02T20:25:49.210Z,8.95
2022-11-02T20:28:52.003Z,8.97
2022-11-02T20:31:54.469Z,8.95
2022-11-02T20:34:58.138Z,8.91
2022-11-02T20:38:00.649Z,8.90
2022-11-02T20:41:08.194Z,8.81
2022-11-02T20:44:12.015Z,8.96
2022-11-02T20:47:14.681Z,8.94
2022-11-02T20:50:18.508Z,8.94
2022-11-02T20:53:24.397Z,8.92
2022-11-02T20:56:26.857Z,8.88
2022-11-02T20:59:29.756Z,8.80
2022-11-02T21:02:32.236Z,8.79
2022-11-02T21:05:34.721Z,8.83
2022-11-02T21:08:37.402Z,8.82
2022-11-02T21:11:59.250Z,8.92
2022-11-02T21:15:02.405Z,9.00
2022-11-02T21:18:04.959Z,8.97
2022-11-02T21:21:10.024Z,9.03
2022-11-02T21:24:12.474Z,9.11
2022-11-02T21:27:20.419Z,9.09
2022-11-02T21:30:26.353Z,9.29
2022-11-02T21:33:29.638Z,9.28
2022-11-02T21:36:32.147Z,9.46
2022-11-02T21:39:35.180Z,9.59
2022-11-02T21:42:37.695Z,9.73
2022-11-02T21:45:40.127Z,9.81
2022-11-02T21:48:42.717Z,9.83
2022-11-02T21:51:45.218Z,9.85
2022-11-02T21:54:47.694Z,10.05
2022-11-02T21:57:50.069Z,9.95
2022-11-02T22:01:19.772Z,9.98
2022-11-02T22:04:31.829Z,10.08
2022-11-02T22:07:54.388Z,10.02
2022-11-02T22:10:57.512Z,10.04
2022-11-02T22:14:00.844Z,10.03
2022-11-02T22:17:11.373Z,9.97
2022-11-02T22:20:24.877Z,9.89
2022-11-02T22:23:27.285Z,9.83
2022-11-02T22:26:30.708Z,9.74
2022-11-02T22:29:35.174Z,9.74
2022-11-02T22:32:37.519Z,9.78
2022-11-02T22:35:39.859Z,9.68
2022-11-02T22:38:51.343Z,9.66
2022-11-02T22:41:53.786Z,9.44
2022-11-02T22:44:58.441Z,9.50
2022-11-02T22:48:00.968Z,9.40
2022-11-02T22:51:05.868Z,9.41
2022-11-02T22:54:11.678Z,9.38
2022-11-02T22:57:14.039Z,9.35
2022-11-02T23:00:16.816Z,9.21
2022-11-02T23:03:19.554Z,9.22
2022-11-02T23:06:22.558Z,9.21
2022-11-02T23:09:25.005Z,9.15
2022-11-02T23:12:27.739Z,9.20
2022-11-02T23:15:30.066Z,9.13
2022-11-02T23:18:52.626Z,9.00
2022-11-02T23:22:26.986Z,9.13
2022-11-02T23:25:29.421Z,9.00
2022-11-02T23:28:50.355Z,8.96
2022-11-02T23:32:11.166Z,8.97
2022-11-02T23:35:32.171Z,8.98
2022-11-02T23:38:53.506Z,8.97
2022-11-02T23:41:55.912Z,9.02
2022-11-02T23:44:58.645Z,9.06
2022-11-02T23:48:09.969Z,9.32
2022-11-02T23:51:31.313Z,9.52
2022-11-02T23:54:52.056Z,9.41
2022-11-02T23:57:54.467Z,9.50
